createdAt,value
2022-10-20T00:26:11.308Z,100.00
2022-10-20T00:28:38.794Z,100.00
2022-10-20T00:31:06.471Z,100.00
2022-10-20T00:33:34.609Z,100.00
2022-10-20T00:36:03.265Z,100.00
2022-10-20T00:38:30.017Z,100.00
2022-10-20T00:40:57.089Z,100.00
2022-10-20T00:43:24.014Z,100.00
2022-10-20T00:45:55.493Z,100.00
2022-10-20T00:48:28.228Z,100.00
2022-10-20T00:50:56.365Z,100.00
2022-10-20T00:53:27.602Z,100.00
2022-10-20T00:55:56.776Z,100.00
2022-10-20T00:58:24.159Z,100.00
2022-10-20T01:00:55.393Z,100.00
2022-10-20T01:03:34.767Z,100.00
2022-10-20T01:06:01.577Z,100.00
2022-10-20T01:08:28.326Z,100.00
2022-10-20T01:11:04.016Z,100.00
2022-10-20T01:13:53.548Z,100.00
2022-10-20T01:16:29.021Z,100.00
2022-10-20T01:19:33.886Z,100.00
2022-10-20T01:22:06.717Z,100.00
2022-10-20T01:25:10.392Z,100.00
2022-10-20T01:27:41.957Z,100.00
2022-10-20T01:30:11.826Z,100.00
2022-10-20T01:32:44.810Z,98.87
2022-10-20T01:35:21.389Z,98.42
2022-10-20T01:37:57.034Z,97.83
2022-10-20T01:40:38.666Z,97.44
2022-10-20T01:43:10.819Z,97.52
2022-10-20T01:45:42.174Z,96.58
2022-10-20T01:48:11.956Z,95.70
2022-10-20T01:50:40.830Z,95.79
2022-10-20T01:53:08.627Z,95.71
2022-10-20T01:55:37.106Z,95.92
2022-10-20T01:58:09.881Z,96.02
2022-10-20T02:00:38.392Z,95.70
2022-10-20T02:03:05.046Z,96.58
2022-10-20T02:05:42.239Z,96.55
2022-10-20T02:08:11.768Z,96.50
2022-10-20T02:10:46.847Z,96.81
2022-10-20T02:13:15.109Z,97.18
2022-10-20T02:15:53.739Z,97.67
2022-10-20T02:18:42.410Z,98.32
2022-10-20T02:21:10.713Z,97.94
2022-10-20T02:23:40.055Z,98.16
2022-10-20T02:26:09.012Z,98.79
2022-10-20T02:28:40.822Z,99.28
2022-10-20T02:31:08.155Z,99.14
2022-10-20T02:33:35.915Z,99.35
2022-10-20T02:36:06.014Z,100.00
2022-10-20T02:38:32.910Z,100.00
2022-10-20T02:40:59.666Z,100.00
2022-10-20T02:43:26.397Z,100.00
2022-10-20T02:45:53.101Z,99.58
2022-10-20T02:48:19.830Z,99.18
2022-10-20T02:50:46.602Z,98.78
2022-10-20T02:53:13.364Z,98.98
2022-10-20T02:55:41.287Z,98.69
2022-10-20T02:58:08.065Z,98.70
2022-10-20T03:00:34.788Z,98.64
2022-10-20T03:03:01.622Z,98.62
2022-10-20T03:05:29.429Z,98.03
2022-10-20T03:07:56.186Z,97.70
2022-10-20T03:10:22.925Z,97.14
2022-10-20T03:12:49.699Z,96.33
2022-10-20T03:15:16.778Z,96.54
2022-10-20T03:17:43.497Z,96.07
2022-10-20T03:20:10.573Z,96.39
2022-10-20T03:22:37.409Z,96.58
2022-10-20T03:25:04.853Z,96.07
2022-10-20T03:27:31.925Z,96.04
2022-10-20T03:29:58.759Z,95.85
2022-10-20T03:32:25.948Z,97.19
2022-10-20T03:34:52.996Z,97.96
2022-10-20T03:37:20.120Z,98.75
2022-10-20T03:39:47.132Z,98.78
2022-10-20T03:42:15.069Z,98.82
2022-10-20T03:44:44.993Z,99.48
2022-10-20T03:47:13.472Z,98.19
2022-10-20T03:49:40.774Z,97.33
2022-10-20T03:52:07.836Z,96.73
2022-10-20T03:54:36.428Z,96.52
2022-10-20T03:57:06.949Z,96.29
2022-10-20T03:59:35.105Z,96.68
2022-10-20T04:02:02.302Z,97.17
2022-10-20T04:04:29.506Z,96.84
2022-10-20T04:06:56.521Z,96.92
2022-10-20T04:09:23.617Z,95.74
2022-10-20T04:11:50.740Z,94.81
2022-10-20T04:14:17.790Z,95.22
2022-10-20T04:16:44.737Z,94.21
2022-10-20T04:19:11.955Z,95.43
2022-10-20T04:21:38.987Z,95.66
2022-10-20T04:24:07.391Z,94.28
2022-10-20T04:26:34.244Z,94.59
2022-10-20T04:29:01.358Z,93.89
2022-10-20T04:31:28.236Z,94.67
2022-10-20T04:33:55.231Z,94.73
2022-10-20T04:36:22.151Z,95.16
2022-10-20T04:38:49.184Z,95.34
2022-10-20T04:41:16.029Z,95.52
2022-10-20T04:43:43.040Z,96.11
2022-10-20T04:46:11.089Z,96.74
2022-10-20T04:48:41.939Z,97.03
2022-10-20T04:51:11.872Z,97.69
2022-10-20T04:53:39.374Z,97.58
2022-10-20T04:56:07.985Z,98.07
2022-10-20T04:58:35.338Z,98.21
2022-10-20T05:01:07.495Z,98.40
2022-10-20T05:03:35.128Z,98.65
2022-10-20T05:06:08.554Z,99.29
2022-10-20T05:08:35.726Z,98.71
2022-10-20T05:11:03.062Z,99.04
2022-10-20T05:13:30.201Z,98.74
2022-10-20T05:15:57.211Z,98.60
2022-10-20T05:18:24.157Z,98.34
2022-10-20T05:21:07.804Z,98.47
2022-10-20T05:23:36.385Z,98.62
2022-10-20T05:26:05.178Z,99.19
2022-10-20T05:28:32.374Z,99.66
2022-10-20T05:31:07.844Z,100.00
2022-10-20T05:33:35.363Z,100.00
2022-10-20T05:36:10.607Z,100.00
2022-10-20T05:38:37.801Z,100.00
2022-10-20T05:41:11.141Z,100.00
2022-10-20T05:43:39.186Z,100.00
2022-10-20T05:46:06.477Z,100.00
2022-10-20T05:48:34.260Z,100.00
2022-10-20T05:51:15.621Z,100.00
2022-10-20T05:53:43.231Z,100.00
2022-10-20T05:56:13.202Z,100.00
2022-10-20T05:58:40.677Z,100.00
2022-10-20T06:01:18.399Z,100.00
2022-10-20T06:03:53.420Z,100.00
2022-10-20T06:06:22.659Z,100.00
2022-10-20T06:08:51.017Z,99.84
2022-10-20T06:11:18.756Z,100.00
2022-10-20T06:13:48.615Z,100.00
2022-10-20T06:16:24.177Z,99.63
2022-10-20T06:18:51.188Z,98.96
2022-10-20T06:21:23.730Z,99.08
2022-10-20T06:23:51.249Z,98.71
2022-10-20T06:26:25.143Z,99.19
2022-10-20T06:28:56.692Z,99.04
2022-10-20T06:31:31.097Z,98.62
2022-10-20T06:33:59.312Z,98.80
2022-10-20T06:36:27.449Z,98.48
2022-10-20T06:38:58.950Z,98.25
2022-10-20T06:41:27.127Z,98.17
2022-10-20T06:43:58.576Z,98.07
2022-10-20T06:46:27.926Z,97.86
2022-10-20T06:48:58.590Z,97.86
2022-10-20T06:51:26.287Z,97.77
2022-10-20T06:53:53.537Z,98.19
2022-10-20T06:56:25.781Z,97.94
2022-10-20T06:58:54.237Z,97.44
2022-10-20T07:01:24.946Z,96.46
2022-10-20T07:03:54.500Z,96.53
2022-10-20T07:06:24.457Z,96.33
2022-10-20T07:08:53.810Z,95.80
2022-10-20T07:11:23.723Z,96.62
2022-10-20T07:13:51.078Z,96.67
2022-10-20T07:16:20.999Z,95.95
2022-10-20T07:18:48.486Z,94.99
2022-10-20T07:21:18.035Z,93.84
2022-10-20T07:23:45.064Z,93.05
2022-10-20T07:26:20.375Z,93.67
2022-10-20T07:28:53.335Z,93.05
2022-10-20T07:31:35.485Z,91.86
2022-10-20T07:34:28.383Z,90.68
2022-10-20T07:36:50.286Z,90.79
2022-10-20T07:39:17.217Z,91.20
2022-10-20T07:41:48.172Z,90.54
2022-10-20T07:44:16.170Z,90.86
2022-10-20T07:46:43.334Z,91.06
2022-10-20T07:49:42.887Z,90.68
2022-10-20T07:51:57.396Z,91.34
2022-10-20T07:54:24.331Z,91.53
2022-10-20T07:56:51.278Z,91.93
2022-10-20T07:59:19.231Z,91.87
2022-10-20T08:01:46.528Z,92.21
2022-10-20T08:04:13.505Z,92.68
2022-10-20T08:06:40.413Z,92.66
2022-10-20T08:09:07.963Z,92.29
2022-10-20T08:11:35.947Z,92.51
2022-10-20T08:14:03.096Z,92.52
2022-10-20T08:16:30.142Z,92.20
2022-10-20T08:21:38.217Z,92.36
2022-10-20T08:24:05.458Z,93.23
2022-10-20T08:26:32.387Z,92.71
2022-10-20T08:28:59.525Z,92.75
2022-10-20T08:31:26.506Z,92.41
2022-10-20T08:33:53.564Z,92.23
2022-10-20T08:36:21.311Z,92.08
2022-10-20T08:38:48.911Z,91.30
2022-10-20T08:41:21.783Z,92.09
2022-10-20T08:43:52.261Z,91.75
2022-10-20T08:46:23.312Z,92.36
2022-10-20T08:48:50.952Z,92.28
2022-10-20T08:51:27.265Z,92.29
2022-10-20T08:53:58.220Z,92.52
2022-10-20T08:56:29.955Z,92.91
2022-10-20T08:58:57.240Z,92.26
2022-10-20T09:01:25.619Z,92.06
2022-10-20T09:04:04.079Z,91.83
2022-10-20T09:06:31.520Z,92.09
2022-10-20T09:08:58.638Z,91.04
2022-10-20T09:11:38.082Z,91.15
2022-10-20T09:14:05.384Z,90.64
2022-10-20T09:16:58.771Z,91.17
2022-10-20T09:19:25.719Z,90.61
2022-10-20T09:21:57.698Z,90.13
2022-10-20T09:24:27.590Z,89.98
2022-10-20T09:26:59.061Z,88.92
2022-10-20T09:29:38.059Z,87.50
2022-10-20T09:32:47.314Z,87.79
2022-10-20T09:35:26.372Z,86.94
2022-10-20T09:37:58.015Z,86.39
2022-10-20T09:40:26.644Z,85.53
2022-10-20T09:43:15.747Z,84.84
2022-10-20T09:45:53.942Z,84.41
2022-10-20T09:48:26.832Z,83.29
2022-10-20T09:50:56.222Z,82.56
2022-10-20T09:53:51.445Z,82.48
2022-10-20T09:56:47.051Z,80.95
2022-10-20T09:59:44.430Z,80.08
2022-10-20T10:02:17.736Z,78.42
2022-10-20T10:04:46.827Z,78.32
2022-10-20T10:07:22.881Z,78.31
2022-10-20T10:10:26.266Z,78.35
2022-10-20T10:13:01.024Z,76.68
2022-10-20T10:15:35.050Z,77.07
2022-10-20T10:18:14.417Z,77.06
2022-10-20T10:20:41.674Z,75.79
2022-10-20T10:23:19.248Z,75.75
2022-10-20T10:25:46.668Z,74.04
2022-10-20T10:28:37.900Z,73.35
2022-10-20T10:31:16.867Z,73.40
2022-10-20T10:33:43.850Z,72.96
2022-10-20T10:36:18.931Z,72.55
2022-10-20T10:38:45.956Z,70.51
2022-10-20T10:41:30.814Z,70.58
2022-10-20T10:43:57.734Z,69.76
2022-10-20T10:46:28.219Z,69.44
2022-10-20T10:49:16.827Z,68.48
2022-10-20T10:52:06.769Z,68.05
2022-10-20T10:55:01.730Z,67.04
2022-10-20T10:57:37.700Z,66.41
2022-10-20T11:00:16.341Z,66.45
2022-10-20T11:03:11.131Z,67.09
2022-10-20T11:06:05.627Z,65.75
2022-10-20T11:09:17.146Z,66.87
2022-10-20T11:11:56.389Z,66.91
2022-10-20T11:14:44.330Z,67.85
2022-10-20T11:17:23.430Z,69.10
2022-10-20T11:20:29.513Z,69.51
2022-10-20T11:23:05.611Z,69.48
2022-10-20T11:25:44.707Z,68.20
2022-10-20T11:28:31.946Z,67.33
2022-10-20T11:30:59.760Z,66.93
2022-10-20T11:33:41.477Z,66.28
2022-10-20T11:36:18.662Z,65.93
2022-10-20T11:38:50.736Z,66.59
2022-10-20T11:41:32.557Z,65.62
2022-10-20T11:44:05.190Z,65.94
2022-10-20T11:47:06.436Z,66.29
2022-10-20T11:49:34.208Z,67.01
2022-10-20T11:52:59.073Z,65.89
2022-10-20T11:56:09.914Z,64.80
2022-10-20T11:58:42.520Z,65.31
2022-10-20T12:01:37.248Z,64.48
2022-10-20T12:04:25.734Z,65.41
2022-10-20T12:06:55.285Z,66.10
2022-10-20T12:09:50.564Z,66.15
2022-10-20T12:12:33.374Z,66.74
2022-10-20T12:15:03.682Z,66.57
2022-10-20T12:17:36.035Z,68.41
2022-10-20T12:20:21.452Z,68.20
2022-10-20T12:22:54.586Z,69.12
2022-10-20T12:25:27.392Z,68.41
2022-10-20T12:28:13.072Z,68.68
2022-10-20T12:30:40.031Z,69.12
2022-10-20T12:33:20.317Z,69.12
2022-10-20T12:36:16.347Z,69.23
2022-10-20T12:38:46.519Z,69.05
2022-10-20T12:41:28.006Z,69.36
2022-10-20T12:44:00.818Z,69.66
2022-10-20T12:46:28.742Z,69.24
2022-10-20T12:49:01.312Z,69.82
2022-10-20T12:51:54.723Z,69.57
2022-10-20T12:54:28.768Z,69.44
2022-10-20T12:57:05.755Z,69.43
2022-10-20T12:59:39.084Z,69.12
2022-10-20T13:02:09.047Z,69.69
2022-10-20T13:05:14.195Z,68.90
2022-10-20T13:07:49.647Z,68.88
2022-10-20T13:10:31.368Z,68.35
2022-10-20T13:13:01.229Z,69.11
2022-10-20T13:15:43.327Z,68.95
2022-10-20T13:18:12.974Z,69.31
2022-10-20T13:21:02.097Z,68.48
2022-10-20T13:23:59.230Z,68.83
2022-10-20T13:26:36.529Z,69.26
2022-10-20T13:29:12.659Z,70.14
2022-10-20T13:31:50.196Z,70.46
2022-10-20T13:34:22.159Z,70.64
2022-10-20T13:36:48.921Z,71.68
2022-10-20T13:39:38.769Z,71.80
2022-10-20T13:42:14.534Z,71.51
2022-10-20T13:45:27.995Z,71.35
2022-10-20T13:48:05.591Z,71.53
2022-10-20T13:50:47.279Z,71.49
2022-10-20T13:53:22.965Z,72.05
2022-10-20T13:56:08.464Z,72.28
2022-10-20T13:58:35.557Z,72.36
2022-10-20T14:01:19.403Z,72.47
2022-10-20T14:03:47.491Z,72.34
2022-10-20T14:06:36.935Z,72.55
2022-10-20T14:09:17.946Z,72.01
2022-10-20T14:11:55.657Z,72.23
2022-10-20T14:14:25.819Z,72.63
2022-10-20T14:17:04.774Z,71.99
2022-10-20T14:19:33.633Z,72.02
2022-10-20T14:22:11.080Z,72.30
2022-10-20T14:24:43.875Z,72.17
2022-10-20T14:27:17.291Z,72.06
2022-10-20T14:29:44.073Z,72.11
2022-10-20T14:32:18.735Z,73.24
2022-10-20T14:34:54.758Z,73.95
2022-10-20T14:37:32.960Z,74.77
2022-10-20T14:40:03.007Z,75.24
2022-10-20T14:42:32.062Z,75.74
2022-10-20T14:45:01.252Z,77.82
2022-10-20T14:47:39.143Z,80.45
2022-10-20T14:50:06.644Z,81.13
2022-10-20T14:52:38.773Z,81.35
2022-10-20T14:55:27.397Z,81.03
2022-10-20T14:57:54.262Z,82.17
2022-10-20T15:00:26.429Z,82.80
2022-10-20T15:02:57.133Z,82.58
2022-10-20T15:05:42.965Z,84.33
2022-10-20T15:08:29.697Z,84.44
2022-10-20T15:10:57.977Z,84.74
2022-10-20T15:13:30.373Z,85.59
2022-10-20T15:15:59.099Z,84.93
2022-10-20T15:18:27.051Z,84.50
2022-10-20T15:20:55.103Z,84.74
2022-10-20T15:48:56.176Z,85.86
2022-10-20T15:51:27.498Z,86.62
2022-10-20T15:53:54.641Z,85.49
2022-10-20T15:56:21.466Z,84.91
2022-10-20T15:58:50.175Z,85.50
2022-10-20T16:01:18.591Z,86.44
2022-10-20T16:03:46.518Z,84.01
2022-10-20T16:06:15.438Z,85.20
2022-10-20T16:08:43.714Z,84.90
2022-10-20T16:11:11.687Z,83.95
2022-10-20T16:13:39.578Z,85.17
2022-10-20T16:16:08.125Z,82.52
2022-10-20T16:18:35.101Z,83.59
2022-10-20T16:21:04.640Z,82.70
2022-10-20T16:23:31.719Z,82.68
2022-10-20T16:25:58.476Z,83.33
2022-10-20T16:28:25.274Z,82.71
2022-10-20T16:31:02.001Z,82.13
2022-10-20T16:33:28.845Z,82.36
2022-10-20T16:35:55.652Z,83.37
2022-10-20T16:38:22.664Z,82.15
2022-10-20T16:41:00.861Z,82.85
2022-10-20T16:43:28.571Z,83.15
2022-10-20T16:45:56.328Z,83.04
2022-10-20T16:48:23.820Z,81.58
2022-10-20T16:50:50.955Z,81.95
2022-10-20T16:53:17.938Z,82.08
2022-10-20T16:55:54.727Z,82.90
2022-10-20T16:58:22.070Z,81.88
2022-10-20T17:01:02.145Z,83.29
2022-10-20T17:03:30.256Z,83.79
2022-10-20T17:06:00.096Z,84.01
2022-10-20T17:08:28.346Z,83.29
2022-10-20T17:11:00.328Z,82.97
2022-10-20T17:13:28.271Z,83.33
2022-10-20T17:15:55.590Z,84.38
2022-10-20T17:18:24.162Z,84.34
2022-10-20T17:20:55.065Z,83.75
2022-10-20T17:23:23.329Z,84.02
2022-10-20T17:25:51.714Z,82.93
2022-10-20T17:28:18.978Z,83.33
2022-10-20T17:30:49.011Z,83.69
2022-10-20T17:33:16.005Z,82.97
2022-10-20T17:35:47.795Z,82.72
2022-10-20T17:38:14.870Z,82.99
2022-10-20T17:40:41.658Z,83.29
2022-10-20T17:43:08.465Z,83.64
2022-10-20T17:45:38.072Z,84.28
2022-10-20T17:48:05.707Z,85.11
2022-10-20T17:50:33.068Z,85.35
2022-10-20T17:53:01.284Z,85.95
2022-10-20T17:55:28.691Z,86.65
2022-10-20T17:57:56.068Z,87.34
2022-10-20T18:00:32.137Z,87.15
2022-10-20T18:03:09.711Z,86.89
2022-10-20T18:05:36.864Z,86.76
2022-10-20T18:08:04.370Z,86.78
2022-10-20T18:10:31.189Z,86.01
2022-10-20T18:12:58.101Z,85.68
2022-10-20T18:15:24.997Z,85.26
2022-10-20T18:17:51.786Z,84.57
2022-10-20T18:20:18.525Z,84.93
2022-10-20T18:22:45.617Z,84.51
2022-10-20T18:25:12.424Z,84.08
2022-10-20T18:27:39.163Z,83.84
2022-10-20T18:30:08.099Z,83.42
2022-10-20T18:32:36.586Z,83.25
2022-10-20T18:35:03.710Z,81.98
2022-10-20T18:37:30.441Z,82.15
2022-10-20T18:39:57.218Z,82.19
2022-10-20T18:42:23.922Z,82.49
2022-10-20T18:44:50.660Z,82.87
2022-10-20T18:47:17.433Z,84.68
2022-10-20T18:49:44.189Z,84.12
2022-10-20T18:52:10.915Z,84.50
2022-10-20T18:54:38.032Z,84.54
2022-10-20T18:57:04.791Z,83.78
2022-10-20T18:59:31.587Z,82.17
2022-10-20T19:01:58.428Z,82.74
2022-10-20T19:04:25.317Z,82.22
2022-10-20T19:06:52.281Z,82.35
2022-10-20T19:09:20.873Z,82.44
2022-10-20T19:14:17.562Z,80.88
2022-10-20T19:16:49.798Z,80.86
2022-10-20T19:19:16.895Z,81.39
2022-10-20T19:21:43.964Z,80.76
2022-10-20T19:24:17.698Z,81.82
2022-10-20T19:26:57.549Z,81.32
2022-10-20T19:29:35.181Z,78.80
2022-10-20T19:32:03.908Z,80.41
2022-10-20T19:34:32.849Z,80.89
2022-10-20T19:36:59.724Z,80.41
2022-10-20T19:39:33.819Z,79.08
2022-10-20T19:42:02.287Z,81.28
2022-10-20T19:44:29.558Z,78.76
2022-10-20T20:12:22.950Z,80.61
2022-10-20T20:14:49.868Z,77.80
2022-10-20T20:17:16.764Z,77.93
2022-10-20T20:19:43.476Z,79.85
2022-10-20T20:22:10.338Z,78.12
2022-10-20T20:24:38.904Z,80.21
2022-10-20T20:27:05.766Z,79.56
2022-10-20T20:29:32.500Z,79.25
2022-10-20T20:31:59.325Z,80.18
2022-10-20T20:34:26.143Z,79.67
2022-10-20T20:36:52.930Z,80.46
2022-10-20T20:39:19.871Z,80.32
2022-10-20T20:41:47.146Z,81.09
2022-10-20T20:44:14.018Z,79.89
2022-10-20T20:46:40.885Z,78.81
2022-10-20T20:49:07.696Z,80.05
2022-10-20T20:51:34.504Z,78.28
2022-10-20T20:54:02.682Z,79.87
2022-10-20T20:56:29.720Z,79.29
2022-10-20T20:58:56.590Z,79.28
2022-10-20T21:01:27.548Z,79.51
2022-10-20T21:04:00.039Z,78.74
2022-10-20T21:06:33.717Z,80.68
2022-10-20T21:09:01.074Z,81.50
2022-10-20T21:11:28.323Z,82.76
2022-10-20T21:13:57.558Z,82.27
2022-10-20T21:16:26.372Z,83.07
2022-10-20T21:18:55.638Z,83.24
2022-10-20T21:21:25.177Z,82.10
2022-10-20T21:23:53.317Z,82.18
2022-10-20T21:26:21.635Z,83.17
2022-10-20T21:28:49.460Z,83.12
2022-10-20T21:31:18.736Z,82.88
2022-10-20T21:33:49.548Z,83.59
2022-10-20T21:36:18.280Z,83.67
2022-10-20T21:38:45.099Z,83.90
2022-10-20T21:41:17.427Z,84.89
2022-10-20T21:43:48.919Z,84.80
2022-10-20T21:46:22.984Z,85.24
2022-10-20T21:48:52.087Z,86.30
2022-10-20T21:51:24.940Z,86.65
2022-10-20T21:53:59.680Z,86.99
2022-10-20T21:56:27.401Z,87.36
2022-10-20T21:58:55.086Z,87.50
2022-10-20T22:01:24.978Z,88.11
2022-10-20T22:03:53.814Z,88.84
2022-10-20T22:06:23.640Z,89.35
2022-10-20T22:08:53.535Z,89.59
2022-10-20T22:11:29.637Z,90.23
2022-10-20T22:13:57.129Z,90.12
2022-10-20T22:16:27.565Z,90.40
2022-10-20T22:19:04.031Z,90.74
2022-10-20T22:21:31.982Z,90.96
2022-10-20T22:23:59.780Z,91.27
2022-10-20T22:26:29.272Z,91.24
2022-10-20T22:28:57.226Z,91.43
2022-10-20T22:31:24.711Z,91.21
2022-10-20T22:33:52.685Z,90.99
2022-10-20T22:36:20.241Z,91.39
2022-10-20T22:38:47.122Z,91.51
2022-10-20T22:41:14.029Z,91.65
2022-10-20T22:43:40.978Z,91.77
2022-10-20T22:46:08.153Z,92.03
2022-10-20T22:48:35.714Z,91.85
2022-10-20T22:51:09.917Z,92.17
2022-10-20T22:53:37.542Z,92.08
2022-10-20T22:56:14.778Z,92.29
2022-10-20T22:58:42.771Z,92.43
2022-10-20T23:01:15.105Z,93.05
2022-10-20T23:03:42.316Z,94.06
2022-10-20T23:06:15.847Z,93.85
2022-10-20T23:08:46.078Z,93.84
2022-10-20T23:11:14.330Z,94.02
2022-10-20T23:13:41.235Z,93.98
2022-10-20T23:16:08.821Z,93.97
2022-10-20T23:18:35.663Z,94.27
2022-10-20T23:21:02.984Z,94.43
2022-10-20T23:23:30.062Z,94.42
2022-10-20T23:25:58.497Z,94.44
2022-10-20T23:28:27.613Z,94.28
2022-10-20T23:31:14.661Z,95.41
2022-10-20T23:33:43.320Z,95.15
2022-10-20T23:36:10.428Z,94.72
2022-10-20T23:38:37.415Z,94.62
2022-10-20T23:41:04.561Z,94.63
2022-10-20T23:43:31.656Z,94.62
2022-10-20T23:45:58.603Z,94.34
2022-10-20T23:48:25.832Z,93.97
2022-10-20T23:50:52.672Z,94.00
2022-10-20T23:53:19.782Z,94.51
2022-10-20T23:55:46.561Z,94.35
2022-10-20T23:58:13.346Z,94.72
